createdAt,value
2023-02-27T00:01:19.297Z,2.50
2023-02-27T00:06:21.163Z,2.80
2023-02-27T00:11:24.194Z,2.10
2023-02-27T00:16:25.970Z,3.28
2023-02-27T00:21:28.154Z,2.10
2023-02-27T00:26:31.290Z,2.47
2023-02-27T00:31:32.980Z,2.45
2023-02-27T00:36:34.555Z,2.25
2023-02-27T00:41:37.487Z,2.10
2023-02-27T00:46:39.171Z,2.10
2023-02-27T00:51:40.734Z,2.30
2023-02-27T00:56:43.689Z,2.28
2023-02-27T01:01:45.290Z,2.65
2023-02-27T01:06:46.873Z,2.63
2023-02-27T01:11:49.899Z,2.72
2023-02-27T01:16:51.841Z,3.05
2023-02-27T01:21:53.666Z,2.15
2023-02-27T01:26:56.569Z,2.72
2023-02-27T01:31:58.210Z,3.40
2023-02-27T01:36:59.810Z,3.20
2023-02-27T01:42:03.792Z,2.75
2023-02-27T01:47:05.660Z,3.13
2023-02-27T01:52:10.103Z,3.17
2023-02-27T01:57:13.096Z,2.65
2023-02-27T02:02:21.174Z,2.67
2023-02-27T02:07:23.100Z,2.40
2023-02-27T02:12:28.924Z,3.28
2023-02-27T02:17:38.349Z,3.03
2023-02-27T02:23:06.983Z,3.30
2023-02-27T02:28:22.732Z,3.40
2023-02-27T02:34:00.286Z,3.35
2023-02-27T02:39:20.355Z,3.92
2023-02-27T02:44:30.799Z,3.55
2023-02-27T02:49:39.987Z,3.58
2023-02-27T02:54:48.910Z,3.50
2023-02-27T02:59:56.382Z,3.20
2023-02-27T03:05:02.356Z,3.60
2023-02-27T03:10:10.000Z,4.63
2023-02-27T03:15:16.918Z,4.30
2023-02-27T03:20:24.762Z,4.47
2023-02-27T03:25:28.656Z,3.70
2023-02-27T03:30:36.031Z,4.05
2023-02-27T03:35:45.916Z,3.28
2023-02-27T03:40:58.671Z,3.88
2023-02-27T03:46:05.409Z,3.63
2023-02-27T03:51:06.996Z,5.72
2023-02-27T03:56:14.034Z,3.55
2023-02-27T04:01:16.100Z,4.75
2023-02-27T04:06:17.694Z,3.90
2023-02-27T04:11:35.201Z,5.53
2023-02-27T04:21:56.370Z,5.07
2023-02-27T04:27:08.332Z,4.43
2023-02-27T04:32:17.490Z,5.13
2023-02-27T04:37:24.688Z,3.78
2023-02-27T04:42:32.007Z,4.95
2023-02-27T04:47:40.068Z,5.43
2023-02-27T04:52:45.459Z,4.28
2023-02-27T04:57:51.282Z,6.82
2023-02-27T05:02:58.744Z,3.88
2023-02-27T05:08:07.142Z,3.95
2023-02-27T05:13:15.035Z,5.10
2023-02-27T05:18:19.204Z,5.72
2023-02-27T05:23:30.351Z,5.35
2023-02-27T05:28:39.750Z,5.68
2023-02-27T05:33:47.630Z,4.38
2023-02-27T05:38:52.731Z,5.45
2023-02-27T05:44:01.205Z,4.70
2023-02-27T05:49:07.663Z,4.75
2023-02-27T05:54:16.670Z,4.77
2023-02-27T05:59:27.487Z,4.68
2023-02-27T06:04:29.126Z,5.13
2023-02-27T06:09:30.697Z,4.35
2023-02-27T06:14:33.510Z,4.57
2023-02-27T06:19:35.020Z,5.32
2023-02-27T06:24:37.029Z,5.00
2023-02-27T06:29:39.973Z,5.28
2023-02-27T06:34:41.616Z,4.88
2023-02-27T06:39:43.112Z,4.55
2023-02-27T06:44:46.057Z,4.72
2023-02-27T06:49:47.575Z,6.13
2023-02-27T06:54:49.230Z,5.28
2023-02-27T06:59:52.116Z,5.47
2023-02-27T07:04:53.751Z,4.97
2023-02-27T07:09:55.332Z,4.90
2023-02-27T07:14:58.152Z,5.13
2023-02-27T07:19:59.640Z,5.07
2023-02-27T07:25:01.157Z,5.80
2023-02-27T07:30:04.875Z,5.03
2023-02-27T07:35:07.858Z,4.70
2023-02-27T07:40:10.660Z,6.13
2023-02-27T07:45:13.592Z,5.53
2023-02-27T07:50:15.274Z,5.38
2023-02-27T07:55:16.944Z,4.55
2023-02-27T08:00:20.518Z,6.15
2023-02-27T08:05:22.114Z,5.32
2023-02-27T08:10:23.668Z,6.30
2023-02-27T08:15:26.700Z,6.38
2023-02-27T08:20:28.289Z,4.72
2023-02-27T08:25:29.904Z,4.65
2023-02-27T08:30:32.755Z,6.43
2023-02-27T08:35:34.340Z,4.72
2023-02-27T08:40:35.907Z,4.90
2023-02-27T08:45:38.792Z,4.57
2023-02-27T08:50:40.327Z,4.75
2023-02-27T08:55:42.263Z,4.80
2023-02-27T09:00:46.636Z,4.18
2023-02-27T09:05:49.052Z,4.78
2023-02-27T09:10:50.530Z,4.03
2023-02-27T09:15:53.469Z,4.15
2023-02-27T09:20:55.014Z,3.85
2023-02-27T09:25:56.493Z,3.20
2023-02-27T09:31:01.597Z,2.92
2023-02-27T09:36:03.843Z,3.60
2023-02-27T09:41:07.193Z,3.13
2023-02-27T09:46:17.885Z,3.60
2023-02-27T09:51:20.868Z,3.65
2023-02-27T09:56:25.958Z,4.10
2023-02-27T10:01:32.733Z,4.35
2023-02-27T10:06:39.747Z,3.22
2023-02-27T10:11:58.667Z,4.00
2023-02-27T10:17:06.298Z,3.28
2023-02-27T10:22:14.399Z,3.03
2023-02-27T10:27:18.997Z,3.40
2023-02-27T10:32:24.844Z,3.17
2023-02-27T10:37:27.844Z,3.80
2023-02-27T10:42:32.325Z,3.08
2023-02-27T10:47:35.217Z,3.88
2023-02-27T10:52:48.863Z,3.53
2023-02-27T10:57:50.684Z,3.35
2023-02-27T11:02:54.268Z,3.25
2023-02-27T11:08:09.267Z,4.50
2023-02-27T11:13:20.291Z,3.53
2023-02-27T11:18:28.041Z,3.35
2023-02-27T11:23:29.640Z,3.70
2023-02-27T11:28:31.246Z,3.83
2023-02-27T11:33:38.276Z,3.55
2023-02-27T11:38:39.759Z,3.55
2023-02-27T11:43:49.434Z,3.78
2023-02-27T11:48:59.134Z,3.80
2023-02-27T11:54:26.721Z,4.10
2023-02-27T11:59:38.856Z,2.88
2023-02-27T12:04:48.529Z,3.35
2023-02-27T12:09:59.613Z,3.40
2023-02-27T12:15:10.366Z,3.75
2023-02-27T12:20:27.891Z,3.70
2023-02-27T12:25:40.780Z,3.35
2023-02-27T12:30:47.536Z,3.25
2023-02-27T12:35:55.631Z,3.50
2023-02-27T12:41:10.404Z,3.05
2023-02-27T12:46:33.602Z,3.33
2023-02-27T12:51:47.828Z,3.30
2023-02-27T12:57:05.235Z,2.80
2023-02-27T13:02:25.205Z,3.33
2023-02-27T13:07:33.567Z,3.90
2023-02-27T13:12:41.402Z,3.67
2023-02-27T13:17:48.043Z,3.10
2023-02-27T13:22:58.236Z,3.17
2023-02-27T13:28:03.216Z,3.58
2023-02-27T13:33:20.559Z,3.05
2023-02-27T13:38:42.564Z,2.90
2023-02-27T13:43:52.090Z,2.78
2023-02-27T13:48:54.513Z,3.08
2023-02-27T13:54:25.115Z,2.20
2023-02-27T13:59:28.596Z,2.20
2023-02-27T14:04:33.771Z,2.25
2023-02-27T14:09:40.902Z,2.50
2023-02-27T14:14:44.723Z,2.60
2023-02-27T14:19:52.176Z,2.42
2023-02-27T14:25:03.475Z,2.55
2023-02-27T14:30:07.190Z,2.40
2023-02-27T14:35:15.901Z,2.90
2023-02-27T14:40:29.631Z,2.90
2023-02-27T14:45:31.935Z,2.97
2023-02-27T14:50:36.672Z,3.17
2023-02-27T14:55:39.582Z,2.80
2023-02-27T15:00:44.464Z,3.05
2023-02-27T15:05:47.736Z,3.25
2023-02-27T15:10:52.864Z,2.88
2023-02-27T15:16:19.491Z,3.97
2023-02-27T15:21:23.569Z,3.47
2023-02-27T15:26:28.617Z,3.15
2023-02-27T15:31:30.998Z,3.55
2023-02-27T15:36:34.887Z,3.30
2023-02-27T15:41:38.128Z,3.45
2023-02-27T15:46:40.417Z,2.78
2023-02-27T15:51:42.155Z,3.03
2023-02-27T15:56:45.099Z,2.90
2023-02-27T16:01:48.356Z,2.90
2023-02-27T16:06:57.137Z,2.83
2023-02-27T16:12:21.262Z,3.63
2023-02-27T16:17:26.498Z,3.00
2023-02-27T16:22:28.066Z,2.25
2023-02-27T16:27:31.044Z,2.50
2023-02-27T16:32:36.515Z,2.97
2023-02-27T16:37:40.067Z,3.97
2023-02-27T16:42:43.222Z,3.17
2023-02-27T16:47:45.110Z,2.30
2023-02-27T16:52:46.703Z,3.35
2023-02-27T16:57:52.310Z,2.97
2023-02-27T17:02:53.823Z,3.13
2023-02-27T17:07:55.421Z,5.75
2023-02-27T17:12:58.327Z,2.30
2023-02-27T17:17:59.871Z,7.00
2023-02-27T17:23:01.513Z,3.40
2023-02-27T17:28:04.793Z,2.67
2023-02-27T17:33:06.463Z,3.00
2023-02-27T17:38:08.392Z,2.72
2023-02-27T17:43:11.299Z,3.30
2023-02-27T17:48:12.820Z,3.80
2023-02-27T17:53:14.342Z,2.83
2023-02-27T17:58:17.235Z,3.17
2023-02-27T18:03:18.900Z,3.63
2023-02-27T18:08:20.545Z,3.03
2023-02-27T18:13:23.398Z,3.15
2023-02-27T18:18:24.965Z,3.10
2023-02-27T18:23:26.524Z,2.70
2023-02-27T18:28:29.518Z,3.47
2023-02-27T18:33:31.247Z,3.42
2023-02-27T18:38:32.820Z,3.15
2023-02-27T18:43:36.237Z,3.30
2023-02-27T18:48:38.100Z,2.67
2023-02-27T18:53:40.550Z,3.08
2023-02-27T18:58:43.694Z,3.95
2023-02-27T19:03:45.453Z,3.15
2023-02-27T19:08:47.183Z,2.97
2023-02-27T19:13:50.149Z,3.85
2023-02-27T19:18:51.705Z,3.08
2023-02-27T19:23:53.828Z,3.05
2023-02-27T19:28:56.675Z,2.92
2023-02-27T19:33:58.254Z,3.50
2023-02-27T19:38:59.865Z,2.15
2023-02-27T19:44:02.783Z,3.25
2023-02-27T19:49:05.936Z,3.47
2023-02-27T19:54:07.531Z,3.53
2023-02-27T19:59:10.999Z,4.20
2023-02-27T20:04:12.686Z,3.20
2023-02-27T20:09:17.378Z,3.60
2023-02-27T20:14:20.310Z,3.40
2023-02-27T20:19:22.748Z,3.58
2023-02-27T20:24:24.326Z,4.20
2023-02-27T20:29:27.880Z,3.83
2023-02-27T20:34:29.504Z,3.53
2023-02-27T20:39:31.450Z,4.55
2023-02-27T20:44:34.908Z,3.83
2023-02-27T20:49:37.849Z,4.30
2023-02-27T20:54:39.423Z,3.45
2023-02-27T20:59:42.501Z,4.03
2023-02-27T21:04:44.256Z,4.53
2023-02-27T21:09:46.060Z,4.00
2023-02-27T21:14:49.112Z,4.28
2023-02-27T21:19:50.845Z,4.18
2023-02-27T21:24:52.418Z,4.05
2023-02-27T21:29:55.448Z,4.10
2023-02-27T21:34:57.055Z,4.40
2023-02-27T21:39:58.646Z,4.65
2023-02-27T21:45:01.691Z,4.05
2023-02-27T21:50:03.411Z,5.20
2023-02-27T21:55:05.767Z,3.83
2023-02-27T22:00:11.781Z,4.35
2023-02-27T22:05:13.386Z,5.18
2023-02-27T22:10:15.166Z,4.63
2023-02-27T22:15:18.149Z,4.20
2023-02-27T22:20:19.977Z,5.70
2023-02-27T22:25:21.547Z,4.60
2023-02-27T22:30:24.521Z,5.10
2023-02-27T22:35:26.370Z,5.40
2023-02-27T22:40:27.964Z,5.18
2023-02-27T22:45:30.820Z,5.40
2023-02-27T22:50:32.505Z,4.53
2023-02-27T22:55:34.072Z,5.25
2023-02-27T23:00:37.374Z,4.60
2023-02-27T23:05:44.739Z,5.32
2023-02-27T23:15:49.081Z,4.60
2023-02-27T23:20:50.724Z,5.00
2023-02-27T23:25:52.286Z,4.68
2023-02-27T23:30:55.458Z,5.13
2023-02-27T23:35:57.555Z,5.43
2023-02-27T23:41:04.713Z,4.85
2023-02-27T23:46:09.115Z,5.72
2023-02-27T23:51:11.349Z,4.97
2023-02-27T23:56:15.373Z,6.40
